Terminal Aerodrome Forecast
Issued by NWS Wichita, KS

Home | Current Version | Previous Version | Text Only | Print | Product List | Glossary Off
Versions: 1 2 3 4 5 6 7 8 9 10 11 12 13 14 15 16 17 18 19

426
FTUS43 KICT 260520
TAFICT
TAF
KICT 260520Z 2606/2706 02006KT P6SM SCT025
     FM260800 VRB03KT 3SM BR FEW008
     FM261000 VRB03KT 2SM BR FEW003 SCT006
     FM261100 29004KT 1/2SM FG BKN002
     FM261300 27004KT 1SM BR SCT005
     FM261500 24005KT P6SM SCT250
     FM262000 34011KT P6SM BKN250=

USA.gov is the U.S. government's official web portal to all federal, state and local government web resources and services.